createdAt,value
2022-10-11T00:00:01.396Z,102041.88
2022-10-11T00:02:29.099Z,102045.60
2022-10-11T00:04:56.785Z,102043.58
2022-10-11T00:07:24.457Z,102040.87
2022-10-11T00:09:52.171Z,102043.41
2022-10-11T00:12:19.856Z,102049.17
2022-10-11T00:14:47.557Z,102048.29
2022-10-11T00:17:15.643Z,102070.91
2022-10-11T00:19:43.373Z,102076.27
2022-10-11T00:22:11.088Z,102067.87
2022-10-11T00:24:38.795Z,102065.02
2022-10-11T00:27:06.486Z,102073.10
2022-10-11T00:29:34.163Z,102072.25
2022-10-11T00:32:01.903Z,102075.13
2022-10-11T00:34:29.591Z,102069.05
2022-10-11T00:36:57.289Z,102073.27
2022-10-11T00:39:24.991Z,102083.08
2022-10-11T00:41:52.717Z,102081.54
2022-10-11T00:44:23.117Z,102078.01
2022-10-11T00:47:02.540Z,102081.70
2022-10-11T00:49:36.600Z,102083.92
2022-10-11T00:52:07.541Z,102077.32
2022-10-11T00:54:36.629Z,102076.30
2022-10-11T00:57:06.503Z,102077.16
2022-10-11T00:59:37.730Z,102074.28
2022-10-11T01:02:05.616Z,102073.95
2022-10-11T01:04:33.696Z,102071.60
2022-10-11T01:07:02.365Z,102075.98
2022-10-11T01:09:30.298Z,102072.25
2022-10-11T01:11:59.372Z,102067.02
2022-10-11T01:14:36.397Z,102063.85
2022-10-11T01:17:42.542Z,102060.97
2022-10-11T01:20:28.900Z,102069.21
2022-10-11T01:23:27.697Z,102066.89
2022-10-11T01:26:31.346Z,102061.30
2022-10-11T01:29:26.719Z,102065.16
2022-10-11T01:31:59.748Z,102070.59
2022-10-11T01:34:43.395Z,102072.61
2022-10-11T01:37:34.334Z,102069.73
2022-10-11T01:40:08.001Z,102073.13
2022-10-11T01:42:37.602Z,102075.33
2022-10-11T01:45:05.600Z,102066.40
2022-10-11T01:47:33.262Z,102064.37
2022-10-11T01:50:02.071Z,102058.29
2022-10-11T01:52:34.667Z,102054.76
2022-10-11T01:55:26.222Z,102057.28
2022-10-11T01:58:11.194Z,102052.73
2022-10-11T02:00:50.201Z,102056.07
2022-10-11T02:03:50.336Z,102048.32
2022-10-11T02:06:37.927Z,102045.48
2022-10-11T02:09:28.963Z,102051.20
2022-10-11T02:11:58.305Z,102054.07
2022-10-11T02:14:27.484Z,102049.66
2022-10-11T02:17:05.448Z,102050.70
2022-10-11T02:19:36.323Z,102044.79
2022-10-11T02:22:07.362Z,102038.22
2022-10-11T02:24:36.605Z,102038.02
2022-10-11T02:27:05.025Z,102041.42
2022-10-11T02:29:35.190Z,102031.28
2022-10-11T02:32:02.985Z,102025.53
2022-10-11T02:34:36.866Z,102016.57
2022-10-11T02:37:07.363Z,102014.58
2022-10-11T02:39:42.232Z,102027.07
2022-10-11T02:42:18.767Z,102028.57
2022-10-11T02:44:49.350Z,102025.01
2022-10-11T02:47:17.021Z,102023.34
2022-10-11T02:49:44.716Z,102019.28
2022-10-11T02:52:12.412Z,102017.75
2022-10-11T02:54:40.079Z,102023.14
2022-10-11T02:57:07.762Z,102022.81
2022-10-11T02:59:35.472Z,102022.45
2022-10-11T03:02:03.206Z,102029.03
2022-10-11T03:04:30.968Z,102026.51
2022-10-11T03:06:58.669Z,102032.27
2022-10-11T03:09:26.363Z,102031.41
2022-10-11T03:11:54.097Z,102037.50
2022-10-11T03:14:21.839Z,102042.53
2022-10-11T03:16:51.568Z,102041.39
2022-10-11T03:19:19.617Z,102040.18
2022-10-11T03:21:47.673Z,102037.30
2022-10-11T03:24:15.478Z,102041.03
2022-10-11T03:26:43.243Z,102043.58
2022-10-11T03:29:11.015Z,102045.24
2022-10-11T03:31:38.699Z,102050.64
2022-10-11T03:34:06.397Z,102049.79
2022-10-11T03:36:34.118Z,102053.16
2022-10-11T03:39:02.002Z,102050.31
2022-10-11T03:41:29.866Z,102050.31
2022-10-11T03:43:57.658Z,102051.13
2022-10-11T03:46:25.402Z,102043.22
2022-10-11T03:48:53.412Z,102044.72
2022-10-11T03:51:21.149Z,102044.72
2022-10-11T03:53:48.878Z,102049.30
2022-10-11T03:56:16.771Z,102044.72
2022-10-11T03:58:44.426Z,102043.91
2022-10-11T04:01:12.239Z,102058.26
2022-10-11T04:03:39.917Z,102051.66
2022-10-11T04:06:08.499Z,102058.62
2022-10-11T04:08:36.515Z,102063.13
2022-10-11T04:11:04.272Z,102056.55
2022-10-11T04:13:32.299Z,102051.66
2022-10-11T04:16:00.088Z,102058.91
2022-10-11T04:18:27.790Z,102057.57
2022-10-11T04:20:56.776Z,102056.43
2022-10-11T04:23:24.560Z,102047.60
2022-10-11T04:25:52.217Z,102052.87
2022-10-11T04:28:20.084Z,102056.92
2022-10-11T04:30:47.880Z,102047.96
2022-10-11T04:33:15.565Z,102047.96
2022-10-11T04:35:43.245Z,102049.17
2022-10-11T04:38:11.017Z,102045.41
2022-10-11T04:40:38.711Z,102047.14
2022-10-11T04:43:06.390Z,102043.74
2022-10-11T04:45:34.399Z,102056.43
2022-10-11T04:48:02.074Z,102052.70
2022-10-11T04:50:29.774Z,102051.52
2022-10-11T04:52:57.482Z,102045.77
2022-10-11T04:55:25.165Z,102054.73
2022-10-11T04:57:52.923Z,102054.73
2022-10-11T05:00:20.596Z,102057.24
2022-10-11T05:02:48.272Z,102065.52
2022-10-11T05:05:18.631Z,102061.95
2022-10-11T05:07:46.329Z,102069.41
2022-10-11T05:10:14.056Z,102065.19
2022-10-11T05:12:41.789Z,102074.12
2022-10-11T05:15:10.393Z,102071.77
2022-10-11T05:17:38.139Z,102071.77
2022-10-11T05:20:06.380Z,102079.02
2022-10-11T05:22:34.066Z,102080.23
2022-10-11T05:25:01.817Z,102081.41
2022-10-11T05:27:29.497Z,102075.69
2022-10-11T05:29:57.191Z,102079.71
2022-10-11T05:32:27.850Z,102079.71
2022-10-11T05:34:55.909Z,102080.55
2022-10-11T05:37:23.749Z,102082.26
2022-10-11T05:39:51.608Z,102083.40
2022-10-11T05:42:19.346Z,102088.83
2022-10-11T05:44:47.081Z,102087.16
2022-10-11T05:47:14.800Z,102088.83
2022-10-11T05:49:42.463Z,102097.10
2022-10-11T05:52:11.657Z,102090.50
2022-10-11T05:54:39.594Z,102099.13
2022-10-11T05:57:07.330Z,102095.56
2022-10-11T05:59:36.264Z,102103.02
2022-10-11T06:02:04.624Z,102108.41
2022-10-11T06:04:32.426Z,102105.54
2022-10-11T06:07:00.402Z,102108.58
2022-10-11T06:09:28.158Z,102104.00
2022-10-11T06:11:55.882Z,102118.03
2022-10-11T06:14:23.633Z,102116.00
2022-10-11T06:16:51.387Z,102114.82
2022-10-11T06:19:19.278Z,102117.34
2022-10-11T06:21:47.944Z,102118.03
2022-10-11T06:24:16.221Z,102117.18
2022-10-11T06:26:44.026Z,102110.60
2022-10-11T06:29:11.896Z,102119.73
2022-10-11T06:31:39.636Z,102120.88
2022-10-11T06:34:07.505Z,102117.70
2022-10-11T06:36:35.328Z,102123.75
2022-10-11T06:39:03.396Z,102122.77
2022-10-11T06:41:31.407Z,102129.18
2022-10-11T06:43:59.281Z,102129.34
2022-10-11T06:46:28.020Z,102125.77
2022-10-11T06:48:57.518Z,102125.94
2022-10-11T06:51:25.977Z,102130.32
2022-10-11T06:53:56.687Z,102134.21
2022-10-11T06:56:24.744Z,102134.38
2022-10-11T06:58:52.636Z,102129.11
2022-10-11T07:01:22.540Z,102133.33
2022-10-11T07:03:50.998Z,102139.57
2022-10-11T07:06:22.917Z,102144.28
2022-10-11T07:08:50.853Z,102142.78
2022-10-11T07:11:23.241Z,102156.12
2022-10-11T07:14:01.864Z,102154.26
2022-10-11T07:16:29.709Z,102155.59
2022-10-11T07:19:01.378Z,102162.69
2022-10-11T07:21:30.259Z,102170.63
2022-10-11T07:23:58.002Z,102174.82
2022-10-11T07:26:25.847Z,102174.13
2022-10-11T07:28:53.612Z,102179.37
2022-10-11T07:31:23.578Z,102171.23
2022-10-11T07:33:51.294Z,102180.87
2022-10-11T07:36:19.008Z,102177.11
2022-10-11T07:38:47.540Z,102174.59
2022-10-11T07:41:15.718Z,102177.27
2022-10-11T07:43:48.196Z,102177.08
2022-10-11T07:46:16.053Z,102173.16
2022-10-11T07:48:43.974Z,102171.62
2022-10-11T07:51:13.671Z,102174.85
2022-10-11T07:53:45.479Z,102178.38
2022-10-11T07:56:14.211Z,102177.63
2022-10-11T07:58:42.410Z,102184.50
2022-10-11T08:01:10.866Z,102177.63
2022-10-11T08:03:38.961Z,102186.33
2022-10-11T08:06:09.342Z,102190.05
2022-10-11T08:08:37.759Z,102186.52
2022-10-11T08:11:06.226Z,102188.09
2022-10-11T08:13:33.993Z,102189.27
2022-10-11T08:16:01.965Z,102187.60
2022-10-11T08:18:29.884Z,102187.60
2022-10-11T08:20:57.818Z,102186.20
2022-10-11T08:23:25.586Z,102191.76
2022-10-11T08:25:57.356Z,102195.13
2022-10-11T08:28:25.273Z,102195.62
2022-10-11T08:30:54.132Z,102182.90
2022-10-11T08:33:23.031Z,102192.18
2022-10-11T08:35:51.345Z,102194.93
2022-10-11T08:38:19.439Z,102200.59
2022-10-11T08:40:56.118Z,102192.70
2022-10-11T08:43:23.845Z,102192.97
2022-10-11T08:45:52.408Z,102196.56
2022-10-11T08:48:27.340Z,102196.30
2022-10-11T08:50:55.112Z,102201.17
2022-10-11T08:53:45.102Z,102200.00
2022-10-11T08:56:16.127Z,102183.06
2022-10-11T08:59:03.203Z,102189.53
2022-10-11T09:01:31.828Z,102183.65
2022-10-11T09:04:01.184Z,102191.43
2022-10-11T09:06:38.520Z,102186.52
2022-10-11T09:09:29.891Z,102184.47
2022-10-11T09:12:12.946Z,102186.72
2022-10-11T09:15:02.311Z,102188.06
2022-10-11T09:17:46.024Z,102190.52
2022-10-11T09:20:44.681Z,102180.74
2022-10-11T09:23:36.828Z,102181.13
2022-10-11T09:26:19.274Z,102182.54
2022-10-11T09:29:04.537Z,102182.18
2022-10-11T09:31:32.976Z,102184.50
2022-10-11T09:34:01.177Z,102185.52
2022-10-11T09:36:31.909Z,102180.58
2022-10-11T09:39:18.270Z,102180.45
2022-10-11T09:41:57.352Z,102179.63
2022-10-11T09:44:26.874Z,102186.59
2022-10-11T09:46:55.575Z,102181.13
2022-10-11T09:49:25.264Z,102184.99
2022-10-11T09:51:58.093Z,102181.23
2022-10-11T09:54:39.721Z,102179.53
2022-10-11T09:57:08.052Z,102180.61
2022-10-11T09:59:36.283Z,102183.09
2022-10-11T10:02:07.934Z,102183.32
2022-10-11T10:04:35.652Z,102189.96
2022-10-11T10:07:14.233Z,102184.53
2022-10-11T10:09:41.945Z,102185.02
2022-10-11T10:12:14.190Z,102189.96
2022-10-11T10:14:42.030Z,102180.54
2022-10-11T10:17:19.558Z,102185.25
2022-10-11T10:19:51.684Z,102176.33
2022-10-11T10:22:21.562Z,102172.44
2022-10-11T10:24:50.530Z,102168.55
2022-10-11T10:27:23.814Z,102168.97
2022-10-11T10:30:02.903Z,102167.50
2022-10-11T10:32:56.419Z,102160.30
2022-10-11T10:35:39.966Z,102160.89
2022-10-11T10:38:26.874Z,102156.61
2022-10-11T10:40:57.864Z,102160.14
2022-10-11T10:43:27.234Z,102166.32
2022-10-11T10:46:13.037Z,102155.98
2022-10-11T10:49:41.599Z,102158.15
2022-10-11T10:52:17.731Z,102151.38
2022-10-11T10:54:47.795Z,102162.30
2022-10-11T10:57:37.058Z,102155.01
2022-10-11T11:00:16.840Z,102149.09
2022-10-11T11:02:53.472Z,102148.04
2022-10-11T11:05:28.486Z,102140.98
2022-10-11T11:08:05.969Z,102142.13
2022-10-11T11:10:40.426Z,102144.97
2022-10-11T11:13:20.392Z,102135.20
2022-10-11T11:16:26.614Z,102141.18
2022-10-11T11:19:02.501Z,102135.20
2022-10-11T11:21:45.421Z,102135.84
2022-10-11T11:24:22.123Z,102124.77
2022-10-11T11:27:02.701Z,102124.77
2022-10-11T11:30:06.701Z,102113.22
2022-10-11T11:32:49.756Z,102116.66
2022-10-11T11:35:27.363Z,102117.24
2022-10-11T11:38:03.821Z,102115.18
2022-10-11T11:40:38.375Z,102116.10
2022-10-11T11:43:09.705Z,102111.88
2022-10-11T11:45:49.956Z,102105.24
2022-10-11T11:48:25.889Z,102111.00
2022-10-11T11:51:17.108Z,102108.02
2022-10-11T11:53:48.072Z,102100.99
2022-10-11T11:56:28.951Z,102109.66
2022-10-11T11:59:20.912Z,102101.38
2022-10-11T12:02:11.781Z,102106.42
2022-10-11T12:04:41.368Z,102100.53
2022-10-11T12:07:17.518Z,102105.57
2022-10-11T12:09:52.865Z,102101.77
2022-10-11T12:12:35.134Z,102100.99
2022-10-11T12:15:20.088Z,102096.58
2022-10-11T12:17:59.574Z,102098.05
2022-10-11T12:20:38.109Z,102101.05
2022-10-11T12:23:26.654Z,102092.85
2022-10-11T12:26:31.895Z,102087.49
2022-10-11T12:29:06.273Z,102090.89
2022-10-11T12:31:35.481Z,102084.80
2022-10-11T12:34:03.192Z,102082.95
2022-10-11T12:36:31.530Z,102076.44
2022-10-11T12:39:21.117Z,102078.59
2022-10-11T12:41:48.778Z,102075.69
2022-10-11T12:44:19.399Z,102073.69
2022-10-11T12:46:56.239Z,102069.21
2022-10-11T12:49:47.233Z,102071.56
2022-10-11T12:52:25.962Z,102078.17
2022-10-11T12:55:02.765Z,102071.70
2022-10-11T12:57:51.877Z,102062.31
2022-10-11T13:00:22.707Z,102067.67
2022-10-11T13:02:50.606Z,102059.47
2022-10-11T13:05:33.059Z,102063.20
2022-10-11T13:08:06.843Z,102065.26
2022-10-11T13:10:41.794Z,102062.73
2022-10-11T13:13:16.016Z,102059.73
2022-10-11T13:15:43.776Z,102062.64
2022-10-11T13:18:15.658Z,102059.80
2022-10-11T13:20:43.404Z,102062.70
2022-10-11T13:23:24.635Z,102058.59
2022-10-11T13:25:52.573Z,102060.94
2022-10-11T13:28:20.566Z,102064.41
2022-10-11T13:30:50.039Z,102059.30
2022-10-11T13:33:35.816Z,102059.60
2022-10-11T13:36:05.376Z,102064.41
2022-10-11T13:38:36.058Z,102061.37
2022-10-11T13:41:10.506Z,102064.60
2022-10-11T13:43:38.317Z,102058.62
2022-10-11T13:46:06.591Z,102054.79
2022-10-11T13:48:40.439Z,102055.52
2022-10-11T13:51:18.029Z,102056.63
2022-10-11T13:54:11.742Z,102054.86
2022-10-11T13:56:45.512Z,102051.03
2022-10-11T13:59:26.129Z,102055.97
2022-10-11T14:01:59.043Z,102045.12
2022-10-11T14:04:29.774Z,102052.99
2022-10-11T14:07:03.460Z,102050.87
2022-10-11T14:09:32.644Z,102052.47
2022-10-11T14:12:36.552Z,102050.67
2022-10-11T14:15:06.305Z,102055.19
2022-10-11T14:17:42.906Z,102054.17
2022-10-11T14:20:28.301Z,102059.14
2022-10-11T14:22:58.695Z,102063.13
2022-10-11T14:25:26.501Z,102064.18
2022-10-11T14:27:55.699Z,102064.41
2022-10-11T14:30:26.508Z,102063.03
2022-10-11T14:32:56.447Z,102063.72
2022-10-11T14:35:28.677Z,102066.07
2022-10-11T14:37:56.432Z,102062.22
2022-10-11T14:40:27.416Z,102061.73
2022-10-11T14:42:55.204Z,102061.66
2022-10-11T14:45:22.954Z,102062.41
2022-10-11T14:47:50.806Z,102059.44
2022-10-11T14:50:29.769Z,102059.80
2022-10-11T14:52:57.573Z,102062.25
2022-10-11T14:55:26.534Z,102061.40
2022-10-11T14:57:54.367Z,102064.21
2022-10-11T15:00:26.550Z,102067.05
2022-10-11T15:02:54.512Z,102061.63
2022-10-11T15:05:23.366Z,102063.69
2022-10-11T15:07:51.269Z,102064.44
2022-10-11T15:10:28.812Z,102063.52
2022-10-11T15:12:56.783Z,102064.27
2022-10-11T15:15:26.949Z,102063.78
2022-10-11T15:17:56.138Z,102067.02
2022-10-11T15:20:49.201Z,102059.93
2022-10-11T15:23:17.251Z,102064.02
2022-10-11T15:25:45.042Z,102057.67
2022-10-11T15:28:22.033Z,102064.63
2022-10-11T15:30:49.886Z,102061.59
2022-10-11T15:33:17.593Z,102059.93
2022-10-11T15:35:45.487Z,102065.98
2022-10-11T15:38:24.335Z,102063.85
2022-10-11T15:40:52.357Z,102069.90
2022-10-11T15:43:24.507Z,102063.10
2022-10-11T15:45:58.130Z,102063.85
2022-10-11T15:48:27.449Z,102065.42
2022-10-11T15:50:55.447Z,102065.23
2022-10-11T15:53:24.845Z,102063.82
2022-10-11T15:55:54.015Z,102069.51
2022-10-11T15:58:32.256Z,102067.38
2022-10-11T16:01:01.688Z,102061.49
2022-10-11T16:03:30.281Z,102062.64
2022-10-11T16:06:03.858Z,102067.94
2022-10-11T16:08:32.892Z,102064.96
2022-10-11T16:11:00.642Z,102069.77
2022-10-11T16:13:28.354Z,102067.19
2022-10-11T16:15:56.353Z,102066.59
2022-10-11T16:18:24.128Z,102073.04
2022-10-11T16:20:52.970Z,102076.99
2022-10-11T16:23:21.697Z,102075.23
2022-10-11T16:25:58.051Z,102074.37
2022-10-11T16:28:26.221Z,102084.88
2022-10-11T16:30:54.127Z,102074.90
2022-10-11T16:33:22.029Z,102082.03
2022-10-11T16:35:49.836Z,102081.12
2022-10-11T16:38:17.637Z,102085.16
2022-10-11T16:40:45.357Z,102088.34
2022-10-11T16:43:13.092Z,102086.09
2022-10-11T16:45:40.857Z,102082.98
2022-10-11T16:48:08.538Z,102092.85
2022-10-11T16:50:39.548Z,102095.63
2022-10-11T16:53:07.652Z,102095.04
2022-10-11T16:55:35.385Z,102104.33
2022-10-11T16:58:03.351Z,102102.04
2022-10-11T17:00:31.071Z,102109.62
2022-10-11T17:02:58.911Z,102114.79
2022-10-11T17:05:26.606Z,102109.62
2022-10-11T17:07:54.271Z,102113.25
2022-10-11T17:10:40.275Z,102109.88
2022-10-11T17:13:08.074Z,102112.14
2022-10-11T17:15:37.236Z,102116.00
2022-10-11T17:18:05.051Z,102122.84
2022-10-11T17:20:33.061Z,102120.64
2022-10-11T17:23:00.768Z,102119.37
2022-10-11T17:25:29.213Z,102116.72
2022-10-11T17:27:57.717Z,102120.64
2022-10-11T17:30:25.719Z,102125.94
2022-10-11T17:32:53.458Z,102128.72
2022-10-11T17:35:21.166Z,102119.47
2022-10-11T17:37:50.976Z,102122.21
2022-10-11T17:40:18.869Z,102116.46
2022-10-11T17:42:48.808Z,102121.36
2022-10-11T17:45:16.649Z,102120.91
2022-10-11T17:47:44.525Z,102119.56
2022-10-11T17:50:12.406Z,102122.67
2022-10-11T17:52:40.223Z,102120.88
2022-10-11T17:55:08.238Z,102114.59
2022-10-11T17:57:36.002Z,102123.12
2022-10-11T18:00:05.082Z,102116.39
2022-10-11T18:02:32.790Z,102117.11
2022-10-11T18:05:00.755Z,102119.50
2022-10-11T18:07:28.545Z,102125.16
2022-10-11T18:09:56.506Z,102126.70
2022-10-11T18:12:24.826Z,102128.62
2022-10-11T18:14:52.888Z,102124.86
2022-10-11T18:17:20.738Z,102121.52
2022-10-11T18:19:48.908Z,102121.00
2022-10-11T18:22:16.918Z,102115.25
2022-10-11T18:24:44.931Z,102121.40
2022-10-11T18:27:12.834Z,102117.90
2022-10-11T18:29:40.742Z,102120.64
2022-10-11T18:32:08.540Z,102110.28
2022-10-11T18:34:36.289Z,102109.98
2022-10-11T18:37:04.208Z,102109.16
2022-10-11T18:39:31.939Z,102113.22
2022-10-11T18:42:00.689Z,102108.55
2022-10-11T18:44:28.475Z,102112.83
2022-10-11T18:46:56.250Z,102119.17
2022-10-11T18:49:24.121Z,102109.52
2022-10-11T18:51:51.992Z,102112.77
2022-10-11T18:54:21.502Z,102117.54
2022-10-11T18:56:49.583Z,102116.03
2022-10-11T18:59:17.409Z,102129.14
2022-10-11T19:01:45.820Z,102125.74
2022-10-11T19:04:14.790Z,102119.73
2022-10-11T19:06:44.428Z,102124.83
2022-10-11T19:09:14.319Z,102125.55
2022-10-11T19:11:42.930Z,102122.54
2022-10-11T19:14:13.376Z,102122.34
2022-10-11T19:16:46.503Z,102121.52
2022-10-11T19:19:14.423Z,102124.24
2022-10-11T19:21:42.257Z,102127.31
2022-10-11T19:24:10.280Z,102124.30
2022-10-11T19:26:39.621Z,102127.05
2022-10-11T19:29:09.271Z,102124.53
2022-10-11T19:31:38.341Z,102128.95
2022-10-11T19:34:06.070Z,102125.05
2022-10-11T19:36:36.683Z,102118.45
2022-10-11T19:39:05.369Z,102124.77
2022-10-11T19:41:33.371Z,102126.98
2022-10-11T19:44:01.167Z,102126.01
2022-10-11T19:49:18.838Z,102124.37
2022-10-11T19:51:46.722Z,102123.00
2022-10-11T19:54:14.976Z,102126.04
2022-10-11T19:56:43.542Z,102123.88
2022-10-11T19:59:11.710Z,102124.93
2022-10-11T20:01:39.513Z,102133.03
2022-10-11T20:04:08.610Z,102128.66
2022-10-11T20:06:39.877Z,102130.19
2022-10-11T20:09:28.677Z,102123.26
2022-10-11T20:11:57.938Z,102129.70
2022-10-11T20:14:26.080Z,102130.02
2022-10-11T20:16:54.264Z,102128.00
2022-10-11T20:19:26.503Z,102129.21
2022-10-11T20:21:58.119Z,102127.34
2022-10-11T20:24:28.412Z,102132.61
2022-10-11T20:26:56.563Z,102127.87
2022-10-11T20:29:26.390Z,102138.89
2022-10-11T20:31:54.310Z,102136.17
2022-10-11T20:34:23.458Z,102139.90
2022-10-11T20:36:51.247Z,102142.95
2022-10-11T20:39:19.178Z,102134.31
2022-10-11T20:41:49.658Z,102138.23
2022-10-11T20:44:18.915Z,102137.19
2022-10-11T20:46:47.400Z,102135.68
2022-10-11T20:49:15.271Z,102134.31
2022-10-11T20:51:43.067Z,102138.40
2022-10-11T20:54:10.903Z,102136.20
2022-10-11T20:56:38.873Z,102131.14
2022-10-11T20:59:07.313Z,102138.23
2022-10-11T21:01:38.103Z,102134.70
2022-10-11T21:04:06.395Z,102146.54
2022-10-11T21:06:34.228Z,102137.77
2022-10-11T21:09:02.092Z,102136.89
2022-10-11T21:11:31.045Z,102134.70
2022-10-11T21:13:59.828Z,102131.37
2022-10-11T21:16:28.250Z,102134.41
2022-10-11T21:18:56.716Z,102137.12
2022-10-11T21:21:25.218Z,102132.71
2022-10-11T21:23:59.886Z,102124.80
2022-10-11T21:26:28.474Z,102125.97
2022-10-11T21:28:56.358Z,102129.18
2022-10-11T21:31:25.367Z,102132.38
2022-10-11T21:33:55.147Z,102124.80
2022-10-11T21:36:23.977Z,102134.60
2022-10-11T21:38:51.890Z,102130.19
2022-10-11T21:41:24.033Z,102134.08
2022-10-11T21:43:52.015Z,102117.21
2022-10-11T21:46:20.659Z,102122.77
2022-10-11T21:48:48.609Z,102123.91
2022-10-11T21:51:21.621Z,102120.88
2022-10-11T21:53:49.341Z,102117.99
2022-10-11T21:56:17.102Z,102117.99
2022-10-11T21:58:44.790Z,102121.72
2022-10-11T22:01:12.979Z,102123.42
2022-10-11T22:03:40.737Z,102120.88
2022-10-11T22:06:08.417Z,102127.45
2022-10-11T22:08:36.175Z,102123.59
2022-10-11T22:11:04.002Z,102122.05
2022-10-11T22:13:32.680Z,102121.23
2022-10-11T22:16:04.772Z,102123.23
2022-10-11T22:18:33.745Z,102124.41
2022-10-11T22:21:15.629Z,102131.83
2022-10-11T22:23:44.127Z,102132.71
2022-10-11T22:26:13.718Z,102129.47
2022-10-11T22:28:41.555Z,102130.84
2022-10-11T22:31:09.746Z,102128.66
2022-10-11T22:33:37.724Z,102121.72
2022-10-11T22:36:07.087Z,102126.30
2022-10-11T22:38:34.768Z,102124.47
2022-10-11T22:41:02.586Z,102124.77
2022-10-11T22:43:30.272Z,102124.47
2022-10-11T22:45:57.957Z,102120.09
2022-10-11T22:48:25.682Z,102122.60
2022-10-11T22:50:53.471Z,102121.07
2022-10-11T22:53:21.382Z,102112.14
2022-10-11T22:55:49.179Z,102121.59
2022-10-11T22:58:16.919Z,102125.81
2022-10-11T23:00:44.802Z,102116.33
2022-10-11T23:03:16.349Z,102116.69
2022-10-11T23:05:44.069Z,102120.41
2022-10-11T23:08:12.901Z,102122.08
2022-10-11T23:10:41.192Z,102122.93
2022-10-11T23:13:08.842Z,102122.28
2022-10-11T23:15:40.265Z,102123.09
2022-10-11T23:18:08.020Z,102121.92
2022-10-11T23:20:35.711Z,102116.33
2022-10-11T23:23:03.414Z,102132.05
2022-10-11T23:25:31.166Z,102113.65
2022-10-11T23:28:01.426Z,102121.07
2022-10-11T23:30:30.094Z,102119.89
2022-10-11T23:32:59.953Z,102117.87
2022-10-11T23:35:27.649Z,102125.29
2022-10-11T23:37:55.917Z,102122.90
2022-10-11T23:40:23.660Z,102128.33
2022-10-11T23:42:51.480Z,102125.13
2022-10-11T23:45:19.188Z,102119.89
2022-10-11T23:47:46.878Z,102126.98
2022-10-11T23:50:14.601Z,102120.88
2022-10-11T23:52:42.303Z,102117.99
2022-10-11T23:55:10.341Z,102116.85
2022-10-11T23:57:38.297Z,102122.24
